Terminal Aerodrome Forecast
Issued by NWS

Current Version | Previous Version | Graphics & Text | Print | Product List | Glossary On
Versions: 1 2 3 4 5 6 7 8 9 10 11 12 13 14 15 16 17 18 19 20 21 22 23 24
000
FTUS41 KRLX 141142 AAA
TAFCKB
TAF AMD
KCKB 141142Z 1412/1512 30011G21KT P6SM SCT025 OVC035
     FM141400 28010G17KT P6SM BKN020
     FM141600 31006KT P6SM BKN030
     FM142300 00000KT P6SM BKN035=

USA.gov is the U.S. government's official web portal to all federal, state and local government web resources and services.